Time;durP1;ratioP1;P1;durP2;ratioP2;P2;SDS_P1;SDS_P2;PMS_P1;PMS_P2;Temp;Humidity;BMP_temperature;BMP_pressure;BME280_temperature;BME280_humidity;BME280_pressure;Samples;Min_cycle;Max_cycle;Signal;HPM_P1;HPM_P2
2022/03/12 00:00:38;;;;;;;77.03;34.27;;;;;;;;;;6307588;22;20131;-66
2022/03/12 00:03:04;;;;;;;78.87;35.73;;;;;;;;;;6307293;22;20003;-66
2022/03/12 00:05:32;;;;;;;75.73;34.90;;;;;;;;;;6307579;22;19999;-66
2022/03/12 00:08:00;;;;;;;82.10;36.90;;;;;;;;;;6306870;22;20011;-66
2022/03/12 00:10:32;;;;;;;83.10;39.53;;;;;;;;;;6307283;22;20074;-66
2022/03/12 00:12:59;;;;;;;83.60;40.63;;;;;;;;;;6307565;22;20003;-65
2022/03/12 00:15:25;;;;;;;91.67;40.07;;;;;;;;;;6280145;22;20003;-68
2022/03/12 00:17:52;;;;;;;94.67;42.47;;;;;;;;;;6307497;22;20000;-67
2022/03/12 00:20:19;;;;;;;99.20;42.83;;;;;;;;;;6280225;22;20014;-67
2022/03/12 00:22:48;;;;;;;90.20;42.03;;;;;;;;;;6307378;22;19995;-67
2022/03/12 00:25:14;;;;;;;98.63;45.57;;;;;;;;;;6307196;22;20424;-67
2022/03/12 00:27:41;;;;;;;94.83;44.17;;;;;;;;;;6279984;22;20078;-67
2022/03/12 00:30:09;;;;;;;100.77;43.00;;;;;;;;;;6307461;22;20000;-66
2022/03/12 00:32:36;;;;;;;99.97;43.73;;;;;;;;;;6307416;22;20404;-65
2022/03/12 00:35:03;;;;;;;102.40;44.70;;;;;;;;;;6279994;22;20007;-66
2022/03/12 00:37:29;;;;;;;104.07;44.43;;;;;;;;;;6307789;22;20006;-65
2022/03/12 00:39:55;;;;;;;103.90;43.27;;;;;;;;;;6307393;22;20072;-65
2022/03/12 00:42:22;;;;;;;103.10;41.47;;;;;;;;;;6307331;22;20041;-65
2022/03/12 00:44:48;;;;;;;104.80;44.37;;;;;;;;;;6306980;22;20078;-65
2022/03/12 00:47:14;;;;;;;106.23;45.30;;;;;;;;;;6307369;22;20000;-65
2022/03/12 00:49:40;;;;;;;103.13;45.63;;;;;;;;;;6279987;22;20011;-65
2022/03/12 00:52:07;;;;;;;106.43;47.17;;;;;;;;;;6307368;22;20015;-66
2022/03/12 00:54:33;;;;;;;115.00;52.10;;;;;;;;;;6307394;22;20003;-66
2022/03/12 00:56:59;;;;;;;126.17;55.47;;;;;;;;;;6279936;22;19995;-66
2022/03/12 00:59:25;;;;;;;132.33;52.27;;;;;;;;;;6280028;22;19999;-66
2022/03/12 01:01:51;;;;;;;116.43;50.80;;;;;;;;;;6307342;22;20003;-66
2022/03/12 01:04:18;;;;;;;111.00;51.17;;;;;;;;;;6307245;22;20110;-66
2022/03/12 01:06:45;;;;;;;129.03;56.17;;;;;;;;;;6307206;22;20012;-67
2022/03/12 01:09:12;;;;;;;101.50;48.93;;;;;;;;;;6307265;22;19995;-66
2022/03/12 01:11:39;;;;;;;104.93;47.07;;;;;;;;;;6307252;22;20007;-68
2022/03/12 01:14:06;;;;;;;105.70;47.47;;;;;;;;;;6307288;22;20034;-67
2022/03/12 01:16:33;;;;;;;128.27;50.23;;;;;;;;;;6306960;22;20030;-67
2022/03/12 01:18:59;;;;;;;124.33;48.40;;;;;;;;;;6307263;22;19998;-69
2022/03/12 01:21:26;;;;;;;111.00;46.57;;;;;;;;;;6307222;22;20079;-66
2022/03/12 01:23:52;;;;;;;98.90;42.80;;;;;;;;;;6307047;22;20000;-68
2022/03/12 01:26:19;;;;;;;105.07;45.07;;;;;;;;;;6307290;22;19999;-68
2022/03/12 01:28:46;;;;;;;111.93;49.53;;;;;;;;;;6306824;22;19995;-68
2022/03/12 01:31:12;;;;;;;112.70;47.47;;;;;;;;;;6307193;22;20416;-67
2022/03/12 01:33:38;;;;;;;119.77;50.47;;;;;;;;;;6279845;22;20172;-67
2022/03/12 01:36:05;;;;;;;113.67;47.57;;;;;;;;;;6307178;22;19996;-67
2022/03/12 01:38:33;;;;;;;118.37;50.23;;;;;;;;;;6307170;22;20078;-68
2022/03/12 01:41:03;;;;;;;148.90;58.13;;;;;;;;;;6307113;22;20023;-67
2022/03/12 01:43:34;;;;;;;139.23;55.23;;;;;;;;;;6307028;22;20007;-67
2022/03/12 01:46:03;;;;;;;111.93;48.20;;;;;;;;;;6307201;22;20007;-66
2022/03/12 01:48:30;;;;;;;106.40;46.80;;;;;;;;;;6308942;22;20579;-66
2022/03/12 01:50:56;;;;;;;101.40;42.70;;;;;;;;;;6308911;22;20066;-64
2022/03/12 01:53:26;;;;;;;90.70;43.07;;;;;;;;;;6308891;22;20082;-65
2022/03/12 01:55:52;;;;;;;109.10;43.83;;;;;;;;;;6308889;22;20077;-66
2022/03/12 01:58:18;;;;;;;110.17;45.07;;;;;;;;;;6308902;22;20435;-65
2022/03/12 02:00:46;;;;;;;95.80;43.30;;;;;;;;;;6308808;22;20022;-65
2022/03/12 02:03:13;;;;;;;98.60;43.03;;;;;;;;;;6308690;22;20039;-65
2022/03/12 02:05:40;;;;;;;94.90;42.90;;;;;;;;;;6281462;22;20029;-65
2022/03/12 02:08:06;;;;;;;99.70;44.80;;;;;;;;;;6308860;22;20068;-65
2022/03/12 02:10:33;;;;;;;105.23;45.63;;;;;;;;;;6308752;22;20003;-64
2022/03/12 02:12:59;;;;;;;109.93;46.33;;;;;;;;;;6308709;22;19999;-64
2022/03/12 02:15:28;;;;;;;98.70;42.43;;;;;;;;;;6281151;22;20000;-64
2022/03/12 02:17:54;;;;;;;101.57;43.97;;;;;;;;;;6308745;22;19996;-65
2022/03/12 02:20:21;;;;;;;109.37;48.53;;;;;;;;;;6308215;22;20005;-65
2022/03/12 02:22:54;;;;;;;107.63;46.00;;;;;;;;;;6281187;22;20436;-65
2022/03/12 02:25:31;;;;;;;92.40;41.63;;;;;;;;;;6281252;22;20023;-65
2022/03/12 02:27:59;;;;;;;106.57;42.33;;;;;;;;;;6308659;22;20003;-66
2022/03/12 02:30:28;;;;;;;94.23;41.63;;;;;;;;;;6308551;22;19999;-65
2022/03/12 02:32:58;;;;;;;97.93;42.47;;;;;;;;;;6281113;22;20297;-65
2022/03/12 02:35:25;;;;;;;101.17;40.60;;;;;;;;;;6308604;22;19991;-65
2022/03/12 02:37:52;;;;;;;73.53;35.93;;;;;;;;;;6281099;22;20045;-64
2022/03/12 02:40:20;;;;;;;80.00;34.93;;;;;;;;;;6308491;22;20003;-64
2022/03/12 02:42:50;;;;;;;88.13;38.40;;;;;;;;;;6308326;22;19999;-63
2022/03/12 02:45:20;;;;;;;78.25;36.28;;;;;;;;;;6308346;22;20429;-64
2022/03/12 02:47:48;;;;;;;87.47;39.47;;;;;;;;;;6308477;22;20003;-64
2022/03/12 02:50:14;;;;;;;87.57;39.83;;;;;;;;;;6308393;22;20427;-64
2022/03/12 02:52:41;;;;;;;88.07;38.30;;;;;;;;;;6308355;22;19995;-65
2022/03/12 02:55:14;;;;;;;80.60;37.27;;;;;;;;;;6280884;22;20437;-64
2022/03/12 02:57:42;;;;;;;88.70;36.80;;;;;;;;;;6280856;22;20003;-65
2022/03/12 03:00:10;;;;;;;83.17;35.33;;;;;;;;;;6308228;22;20048;-65
2022/03/12 03:02:40;;;;;;;74.87;34.47;;;;;;;;;;6308118;22;19999;-66
2022/03/12 03:06:00;;;;;;;80.20;34.70;;;;;;;;;;6308199;22;20408;-66
2022/03/12 03:08:10;;;;;;;79.45;37.72;;;;;;;;;;6295683;22;20019;-65
2022/03/12 03:10:43;;;;;;;75.17;34.67;;;;;;;;;;6308139;22;20057;-66
2022/03/12 03:13:16;;;;;;;80.83;35.70;;;;;;;;;;6308094;22;20060;-64
2022/03/12 03:15:50;;;;;;;76.97;34.07;;;;;;;;;;6280585;22;19995;-66
2022/03/12 03:18:18;;;;;;;77.13;33.70;;;;;;;;;;6308132;22;20076;-66
2022/03/12 03:20:45;;;;;;;74.60;31.53;;;;;;;;;;6308068;22;19999;-65
2022/03/12 03:23:11;;;;;;;67.40;31.80;;;;;;;;;;6280542;22;20064;-65
2022/03/12 03:25:38;;;;;;;68.93;31.00;;;;;;;;;;6308008;22;20081;-66
2022/03/12 03:28:05;;;;;;;63.07;28.50;;;;;;;;;;6308020;22;20081;-65
2022/03/12 03:30:35;;;;;;;65.00;28.83;;;;;;;;;;6307963;22;19995;-66
2022/03/12 03:33:02;;;;;;;65.27;29.87;;;;;;;;;;6308269;22;20037;-66
2022/03/12 03:35:29;;;;;;;61.00;30.07;;;;;;;;;;6307877;22;20005;-66
2022/03/12 03:37:55;;;;;;;77.53;31.67;;;;;;;;;;6307952;22;19999;-65
2022/03/12 03:40:21;;;;;;;58.97;28.93;;;;;;;;;;6280478;22;20422;-66
2022/03/12 03:42:48;;;;;;;61.73;28.13;;;;;;;;;;6307756;22;19995;-67
2022/03/12 03:45:21;;;;;;;56.43;27.40;;;;;;;;;;6307822;22;19999;-64
2022/03/12 03:47:47;;;;;;;70.57;31.47;;;;;;;;;;6280469;22;20022;-68
2022/03/12 03:50:14;;;;;;;60.30;28.73;;;;;;;;;;6280417;22;20010;-64
2022/03/12 03:52:40;;;;;;;66.90;29.20;;;;;;;;;;6307757;22;19999;-64
2022/03/12 03:55:07;;;;;;;65.67;29.47;;;;;;;;;;6280233;22;20006;-64
2022/03/12 03:57:33;;;;;;;71.27;29.53;;;;;;;;;;6307773;22;20066;-65
2022/03/12 03:59:59;;;;;;;62.13;29.97;;;;;;;;;;6307690;22;19999;-64
2022/03/12 04:02:25;;;;;;;59.63;30.53;;;;;;;;;;6280241;22;20091;-64
2022/03/12 04:04:53;;;;;;;66.97;32.63;;;;;;;;;;6280134;22;20015;-64
2022/03/12 04:07:19;;;;;;;70.47;32.90;;;;;;;;;;6279935;22;20084;-64
2022/03/12 04:09:45;;;;;;;76.77;32.13;;;;;;;;;;6279958;22;19999;-63
2022/03/12 04:12:11;;;;;;;70.13;33.60;;;;;;;;;;6307520;22;20003;-64
2022/03/12 04:14:38;;;;;;;72.87;32.40;;;;;;;;;;6307601;22;20010;-64
2022/03/12 04:17:05;;;;;;;79.50;33.93;;;;;;;;;;6280233;22;20012;-65
2022/03/12 04:19:34;;;;;;;70.00;31.27;;;;;;;;;;6280010;22;20095;-65
2022/03/12 04:22:00;;;;;;;74.57;34.87;;;;;;;;;;6307520;22;20438;-66
2022/03/12 04:24:27;;;;;;;63.20;33.50;;;;;;;;;;6306996;22;20068;-66
2022/03/12 04:26:53;;;;;;;68.10;33.77;;;;;;;;;;6307514;22;20019;-67
2022/03/12 04:29:20;;;;;;;67.27;31.97;;;;;;;;;;6307483;22;19991;-66
2022/03/12 04:31:50;;;;;;;75.20;32.43;;;;;;;;;;6307502;22;20006;-65
2022/03/12 04:34:17;;;;;;;75.90;32.33;;;;;;;;;;6307480;22;19999;-66
2022/03/12 04:36:44;;;;;;;78.67;35.57;;;;;;;;;;6307074;22;20420;-66
2022/03/12 04:39:11;;;;;;;75.27;34.33;;;;;;;;;;6307411;22;19991;-66
2022/03/12 04:41:39;;;;;;;65.50;31.57;;;;;;;;;;6307472;22;19995;-66
2022/03/12 04:44:06;;;;;;;71.30;32.50;;;;;;;;;;6307316;22;20037;-65
2022/03/12 04:46:33;;;;;;;65.73;32.40;;;;;;;;;;6307403;22;20362;-66
2022/03/12 04:48:59;;;;;;;69.50;30.90;;;;;;;;;;6280076;22;20003;-65
2022/03/12 04:51:25;;;;;;;65.97;32.07;;;;;;;;;;6307378;22;20312;-65
2022/03/12 04:53:58;;;;;;;78.37;34.23;;;;;;;;;;6279956;22;20099;-67
2022/03/12 04:56:25;;;;;;;68.13;31.93;;;;;;;;;;6307372;22;20006;-66
2022/03/12 04:58:53;;;;;;;81.13;33.87;;;;;;;;;;6307380;22;20086;-66
2022/03/12 05:01:20;;;;;;;72.30;33.50;;;;;;;;;;6307379;22;20420;-66
2022/03/12 05:03:47;;;;;;;79.37;35.23;;;;;;;;;;6307244;22;20003;-67
2022/03/12 05:06:22;;;;;;;81.97;36.17;;;;;;;;;;6306902;22;20047;-66
2022/03/12 05:08:48;;;;;;;83.20;37.00;;;;;;;;;;6245795;22;20026;-66
2022/03/12 05:11:15;;;;;;;91.30;37.77;;;;;;;;;;6243694;23;20053;-66
2022/03/12 05:13:41;;;;;;;85.40;37.27;;;;;;;;;;6245651;23;20004;-65
2022/03/12 05:16:08;;;;;;;83.90;34.90;;;;;;;;;;6245651;23;20004;-65
2022/03/12 05:18:36;;;;;;;85.37;36.13;;;;;;;;;;6245746;22;20030;-65
2022/03/12 05:21:03;;;;;;;75.73;33.60;;;;;;;;;;6245673;22;20516;-65
2022/03/12 05:23:29;;;;;;;80.47;32.70;;;;;;;;;;6247452;23;20004;-64
2022/03/12 05:25:55;;;;;;;69.40;30.60;;;;;;;;;;6247576;23;19996;-67
2022/03/12 05:28:23;;;;;;;75.60;32.30;;;;;;;;;;6247635;23;20004;-68
2022/03/12 05:30:50;;;;;;;73.80;34.47;;;;;;;;;;6247559;23;19996;-67
2022/03/12 05:33:17;;;;;;;78.87;38.00;;;;;;;;;;6247537;23;20069;-67
2022/03/12 05:35:45;;;;;;;82.43;38.07;;;;;;;;;;6247480;23;20068;-65
2022/03/12 05:38:12;;;;;;;71.40;35.03;;;;;;;;;;6245954;23;20004;-67
2022/03/12 05:40:40;;;;;;;83.97;36.67;;;;;;;;;;6247449;22;20032;-65
2022/03/12 05:43:12;;;;;;;81.37;36.30;;;;;;;;;;6247366;22;20011;-67
2022/03/12 05:45:39;;;;;;;73.93;35.50;;;;;;;;;;6247473;22;19992;-68
2022/03/12 05:48:10;;;;;;;73.43;34.97;;;;;;;;;;6245828;23;19996;-68
2022/03/12 05:50:40;;;;;;;71.13;33.43;;;;;;;;;;6245801;23;20007;-66
2022/03/12 05:53:09;;;;;;;69.67;30.27;;;;;;;;;;6247341;23;20031;-66
2022/03/12 05:55:38;;;;;;;66.43;30.43;;;;;;;;;;6247307;22;20425;-67
2022/03/12 05:58:04;;;;;;;70.03;31.70;;;;;;;;;;6247290;22;19992;-67
2022/03/12 06:00:32;;;;;;;68.90;31.37;;;;;;;;;;6247197;23;20024;-66
2022/03/12 06:03:00;;;;;;;72.03;31.97;;;;;;;;;;6247119;22;20413;-65
2022/03/12 06:05:26;;;;;;;68.70;31.63;;;;;;;;;;6245572;23;20023;-67
2022/03/12 06:07:53;;;;;;;74.07;32.33;;;;;;;;;;6285065;22;20007;-66
2022/03/12 06:10:21;;;;;;;80.00;34.87;;;;;;;;;;6281032;22;19999;-67
2022/03/12 06:12:51;;;;;;;63.43;29.33;;;;;;;;;;6281243;22;19995;-66
2022/03/12 06:15:18;;;;;;;82.77;33.40;;;;;;;;;;6308918;22;20419;-68
2022/03/12 06:17:48;;;;;;;72.83;31.03;;;;;;;;;;6308643;22;20070;-66
2022/03/12 06:20:15;;;;;;;90.67;37.53;;;;;;;;;;6308680;22;20006;-66
2022/03/12 06:22:42;;;;;;;53.90;26.93;;;;;;;;;;6308175;22;20331;-66
2022/03/12 06:25:10;;;;;;;58.83;29.53;;;;;;;;;;6308697;22;19991;-66
2022/03/12 06:27:36;;;;;;;59.10;28.43;;;;;;;;;;6308568;22;19995;-66
2022/03/12 06:30:04;;;;;;;62.73;29.70;;;;;;;;;;6308543;22;20350;-66
2022/03/12 06:32:31;;;;;;;71.57;31.10;;;;;;;;;;6308280;22;19995;-65
2022/03/12 06:34:58;;;;;;;75.47;29.77;;;;;;;;;;6308429;22;20074;-67
2022/03/12 06:37:24;;;;;;;63.73;26.90;;;;;;;;;;6308391;22;20431;-66
2022/03/12 06:39:51;;;;;;;54.53;26.13;;;;;;;;;;6308491;22;20022;-67
2022/03/12 06:42:17;;;;;;;62.30;28.83;;;;;;;;;;6308410;22;20030;-67
2022/03/12 06:44:44;;;;;;;59.20;27.13;;;;;;;;;;6308330;22;20015;-65
2022/03/12 06:47:11;;;;;;;51.27;25.70;;;;;;;;;;6308364;22;20471;-66
2022/03/12 06:49:38;;;;;;;62.90;28.70;;;;;;;;;;6308429;22;19995;-65
2022/03/12 06:52:04;;;;;;;54.93;26.37;;;;;;;;;;6308308;22;19995;-66
2022/03/12 06:54:31;;;;;;;56.47;26.63;;;;;;;;;;6308382;22;20090;-63
2022/03/12 06:56:57;;;;;;;51.17;24.07;;;;;;;;;;6280895;22;20416;-66
2022/03/12 06:59:23;;;;;;;63.70;27.37;;;;;;;;;;6280898;22;20420;-63
2022/03/12 07:01:50;;;;;;;57.63;26.50;;;;;;;;;;6308202;22;19992;-63
2022/03/12 07:04:20;;;;;;;59.67;27.30;;;;;;;;;;6308131;22;20011;-66
2022/03/12 07:06:47;;;;;;;57.38;26.75;;;;;;;;;;6280430;22;20019;-65
2022/03/12 07:09:13;;;;;;;56.20;24.87;;;;;;;;;;6308134;22;20064;-64
2022/03/12 07:11:39;;;;;;;58.27;26.67;;;;;;;;;;6308170;22;20078;-64
2022/03/12 07:14:05;;;;;;;49.10;23.23;;;;;;;;;;6307738;22;20323;-64
2022/03/12 07:16:31;;;;;;;43.93;21.77;;;;;;;;;;6308077;22;20008;-64
2022/03/12 07:18:57;;;;;;;51.37;25.00;;;;;;;;;;6308100;22;20034;-64
2022/03/12 07:21:24;;;;;;;49.23;23.63;;;;;;;;;;6308031;22;20025;-64
2022/03/12 07:23:51;;;;;;;51.27;22.03;;;;;;;;;;6307789;22;20074;-63
2022/03/12 07:26:17;;;;;;;43.17;21.07;;;;;;;;;;6305229;22;19991;-64
2022/03/12 07:28:43;;;;;;;49.63;22.00;;;;;;;;;;6307587;22;20081;-64
2022/03/12 07:31:09;;;;;;;51.80;22.20;;;;;;;;;;6307745;22;19992;-63
2022/03/12 07:33:35;;;;;;;46.70;20.67;;;;;;;;;;6307106;22;20483;-63
2022/03/12 07:36:01;;;;;;;53.90;23.90;;;;;;;;;;6306880;22;20066;-63
2022/03/12 07:38:28;;;;;;;42.00;20.77;;;;;;;;;;6307286;22;20000;-63
2022/03/12 07:40:54;;;;;;;51.63;22.77;;;;;;;;;;6307137;22;20388;-63
2022/03/12 07:43:20;;;;;;;51.10;22.47;;;;;;;;;;6306922;22;20003;-65
2022/03/12 07:45:46;;;;;;;45.40;20.17;;;;;;;;;;6307137;22;19999;-65
2022/03/12 07:48:13;;;;;;;53.78;22.58;;;;;;;;;;6307264;22;20062;-65
2022/03/12 07:50:39;;;;;;;44.97;21.90;;;;;;;;;;6276597;22;20010;-65
2022/03/12 07:53:06;;;;;;;49.55;24.33;;;;;;;;;;6279982;22;20497;-66
2022/03/12 07:55:32;;;;;;;80.87;23.50;;;;;;;;;;6307147;22;20007;-65
2022/03/12 07:57:58;;;;;;;50.45;22.00;;;;;;;;;;6307245;22;19999;-65
2022/03/12 08:00:28;;;;;;;52.67;24.57;;;;;;;;;;6307249;22;20000;-66
2022/03/12 08:02:55;;;;;;;56.75;27.77;;;;;;;;;;6277914;22;20000;-67
2022/03/12 08:05:24;;;;;;;43.80;21.50;;;;;;;;;;6306375;22;20078;-66
2022/03/12 08:07:54;;;;;;;44.67;23.05;;;;;;;;;;6279180;22;20019;-66
2022/03/12 08:10:21;;;;;;;45.22;21.85;;;;;;;;;;6279203;22;20349;-65
2022/03/12 08:12:48;;;;;;;47.90;25.88;;;;;;;;;;6279683;22;20098;-67
2022/03/12 08:15:15;;;;;;;50.35;22.75;;;;;;;;;;6307146;22;19999;-66
2022/03/12 08:17:41;;;;;;;50.65;24.60;;;;;;;;;;6306930;22;20068;-66
2022/03/12 08:20:08;;;;;;;50.30;26.35;;;;;;;;;;6279354;22;20365;-67
2022/03/12 08:22:38;;;;;;;52.90;27.27;;;;;;;;;;6307119;22;19991;-69
2022/03/12 08:25:05;;;;;;;49.22;25.48;;;;;;;;;;6306835;22;20003;-66
2022/03/12 08:27:32;;;;;;;89.80;40.53;;;;;;;;;;6306605;22;20003;-67
2022/03/12 08:29:59;;;;;;;49.95;24.58;;;;;;;;;;6279377;22;20078;-65
2022/03/12 08:32:25;;;;;;;48.78;25.50;;;;;;;;;;6307258;22;20286;-64
2022/03/12 08:34:51;;;;;;;50.53;25.73;;;;;;;;;;6307194;22;20078;-64
2022/03/12 08:37:17;;;;;;;53.33;24.75;;;;;;;;;;6307282;22;20060;-65
2022/03/12 08:39:44;;;;;;;50.40;24.23;;;;;;;;;;6306998;22;20070;-65
2022/03/12 08:42:10;;;;;;;47.55;23.98;;;;;;;;;;6307101;22;20006;-64
2022/03/12 08:44:37;;;;;;;41.83;23.90;;;;;;;;;;6306885;22;20432;-64
2022/03/12 08:47:04;;;;;;;47.50;21.35;;;;;;;;;;6307146;22;19999;-64
2022/03/12 08:49:30;;;;;;;40.65;23.33;;;;;;;;;;6303870;22;20075;-66
2022/03/12 08:51:56;;;;;;;44.90;24.05;;;;;;;;;;6306377;22;20121;-68
2022/03/12 08:54:22;;;;;;;50.08;25.40;;;;;;;;;;6306768;22;20002;-66
2022/03/12 08:56:49;;;;;;;49.05;25.17;;;;;;;;;;6308355;22;20003;-66
2022/03/12 08:59:15;;;;;;;44.15;23.92;;;;;;;;;;6281457;22;20023;-66
2022/03/12 09:01:43;;;;;;;39.05;22.85;;;;;;;;;;6308478;22;20538;-68
2022/03/12 09:04:10;;;;;;;43.60;22.02;;;;;;;;;;6308788;22;20014;-65
2022/03/12 09:06:36;;;;;;;48.83;24.33;;;;;;;;;;6308523;22;20003;-65
2022/03/12 09:09:02;;;;;;;39.47;21.45;;;;;;;;;;6308974;22;19999;-65
2022/03/12 09:11:28;;;;;;;42.55;23.50;;;;;;;;;;6308443;22;19995;-67
2022/03/12 09:13:55;;;;;;;53.42;25.25;;;;;;;;;;6308920;22;20014;-67
2022/03/12 09:16:22;;;;;;;55.90;27.83;;;;;;;;;;6308820;22;20075;-65
2022/03/12 09:18:48;;;;;;;50.47;22.90;;;;;;;;;;6281104;22;20311;-64
2022/03/12 09:21:15;;;;;;;39.47;22.00;;;;;;;;;;6308882;22;20080;-65
2022/03/12 09:23:41;;;;;;;47.00;23.40;;;;;;;;;;6308386;22;20008;-66
2022/03/12 09:26:07;;;;;;;45.67;23.40;;;;;;;;;;6308792;22;20117;-64
2022/03/12 09:28:34;;;;;;;40.75;22.67;;;;;;;;;;6308734;22;20451;-67
2022/03/12 09:31:00;;;;;;;29.70;15.60;;;;;;;;;;6281364;22;20436;-66
2022/03/12 09:33:26;;;;;;;34.55;17.42;;;;;;;;;;6308583;22;20562;-65
2022/03/12 09:35:56;;;;;;;38.13;19.45;;;;;;;;;;6281244;22;20006;-65
2022/03/12 09:38:22;;;;;;;37.05;19.58;;;;;;;;;;6307994;22;20429;-65
2022/03/12 09:40:49;;;;;;;31.92;17.35;;;;;;;;;;6308670;22;19999;-65
2022/03/12 09:43:15;;;;;;;33.30;18.20;;;;;;;;;;6308537;22;20014;-66
2022/03/12 09:45:41;;;;;;;29.33;17.70;;;;;;;;;;6308228;22;20015;-67
2022/03/12 09:48:08;;;;;;;34.55;18.48;;;;;;;;;;6280488;22;20439;-64
2022/03/12 09:50:35;;;;;;;32.42;17.10;;;;;;;;;;6280049;22;19999;-64
2022/03/12 09:53:01;;;;;;;33.13;18.48;;;;;;;;;;6306737;22;20072;-65
2022/03/12 09:55:27;;;;;;;63.30;38.60;;;;;;;;;;6305086;22;20003;-64
2022/03/12 09:57:53;;;;;;;35.63;18.95;;;;;;;;;;6306725;22;20029;-64
2022/03/12 10:00:20;;;;;;;39.35;19.45;;;;;;;;;;6308374;22;19991;-64
2022/03/12 10:02:47;;;;;;;33.03;18.20;;;;;;;;;;6308137;22;19999;-64
2022/03/12 10:05:13;;;;;;;31.50;17.23;;;;;;;;;;6307858;22;20013;-64
2022/03/12 10:07:41;;;;;;;48.28;24.95;;;;;;;;;;6279883;22;20094;-64
2022/03/12 10:10:12;;;;;;;91.88;39.22;;;;;;;;;;6308348;22;19996;-64
2022/03/12 10:12:38;;;;;;;101.00;43.33;;;;;;;;;;6308329;22;19999;-64
2022/03/12 10:15:05;;;;;;;74.65;33.30;;;;;;;;;;6308393;22;20435;-64
2022/03/12 10:17:31;;;;;;;77.68;34.58;;;;;;;;;;6280602;22;20086;-69
2022/03/12 10:19:57;;;;;;;47.80;22.38;;;;;;;;;;6307599;22;20079;-67
2022/03/12 10:22:24;;;;;;;42.67;20.92;;;;;;;;;;6279349;22;20380;-69
2022/03/12 10:24:51;;;;;;;49.90;19.58;;;;;;;;;;6307227;22;20078;-64
2022/03/12 10:27:17;;;;;;;30.13;16.58;;;;;;;;;;6308313;22;19999;-63
2022/03/12 10:29:43;;;;;;;32.25;16.70;;;;;;;;;;6307772;22;20070;-63
2022/03/12 10:32:28;;;;;;;27.67;16.23;;;;;;;;;;6308147;22;19995;-64
2022/03/12 10:34:56;;;;;;;32.33;15.18;;;14.10;97.30;;;;;;6308336;22;20327;-64
2022/03/12 10:37:23;;;;;;;24.45;15.40;;;;;;;;;;6305971;22;20003;-67
2022/03/12 10:40:03;;;;;;;27.17;15.50;;;;;;;;;;6307565;22;20045;-66
2022/03/12 10:42:31;;;;;;;26.65;15.52;;;12.70;87.90;;;;;;6307888;22;20002;-66
2022/03/12 10:45:08;;;;;;;32.38;16.35;;;13.00;53.20;;;;;;6307861;22;20003;-66
2022/03/12 10:47:41;;;;;;;25.23;15.43;;;13.10;46.70;;;;;;6308053;22;19995;-66
2022/03/12 10:50:11;;;;;;;25.25;16.10;;;13.70;45.30;;;;;;6308121;22;20408;-66
2022/03/12 10:52:44;;;;;;;25.92;16.30;;;14.10;42.80;;;;;;6307564;22;20114;-66
2022/03/12 10:55:30;;;;;;;26.17;15.45;;;14.20;42.20;;;;;;6280617;22;20043;-66
2022/03/12 10:58:00;;;;;;;26.65;15.95;;;;;;;;;;6307821;22;20451;-66
2022/03/12 11:00:26;;;;;;;27.88;14.63;;;;;;;;;;6307489;22;20000;-66
2022/03/12 11:02:58;;;;;;;22.98;13.70;;;15.70;44.20;;;;;;6280335;22;20068;-66
2022/03/12 11:05:26;;;;;;;25.98;14.38;;;;;;;;;;6307800;22;19999;-66
2022/03/12 11:08:04;;;;;;;24.88;13.90;;;16.90;40.50;;;;;;6307381;22;20011;-65
2022/03/12 11:10:33;;;;;;;25.90;15.27;;;17.00;39.00;;;;;;6307476;22;20077;-65
2022/03/12 11:13:01;;;;;;;21.88;14.00;;;17.00;37.60;;;;;;6306267;22;19999;-66
2022/03/12 11:15:28;;;;;;;23.20;13.02;;;;;;;;;;6307846;22;20090;-66
2022/03/12 11:17:54;;;;;;;21.33;12.20;;;18.30;36.60;;;;;;6307513;22;20001;-66
2022/03/12 11:20:25;;;;;;;20.38;11.30;;;18.90;37.60;;;;;;6307361;22;20078;-66
2022/03/12 11:23:07;;;;;;;14.30;9.93;;;18.90;36.70;;;;;;6307667;22;19999;-66
2022/03/12 11:25:37;;;;;;;21.10;11.13;;;18.40;35.20;;;;;;6307456;22;20444;-65
2022/03/12 11:28:18;;;;;;;20.60;12.25;;;19.20;35.60;;;;;;6307434;22;20416;-65
2022/03/12 11:30:44;;;;;;;21.00;12.30;;;;;;;;;;6307730;22;19996;-67
2022/03/12 11:33:10;;;;;;;20.23;12.13;;;19.70;35.30;;;;;;6307350;22;20000;-68
2022/03/12 11:35:45;;;;;;;30.35;14.88;;;20.20;33.90;;;;;;6307472;22;20062;-68
2022/03/12 11:38:15;;;;;;;25.65;12.75;;;;;;;;;;6305555;22;20006;-67
2022/03/12 11:40:47;;;;;;;23.00;11.95;;;19.80;34.20;;;;;;6279495;22;20072;-68
2022/03/12 11:43:39;;;;;;;19.27;13.20;;;;;;;;;;6307578;22;20018;-69
2022/03/12 11:46:06;;;;;;;17.73;11.52;;;;;;;;;;6302281;22;20010;-68
2022/03/12 11:48:34;;;;;;;19.02;12.30;;;20.10;34.80;;;;;;6307215;22;20423;-69
2022/03/12 11:51:01;;;;;;;21.02;12.63;;;;;;;;;;6307658;22;20065;-67
2022/03/12 11:53:39;;;;;;;21.00;12.18;;;21.50;33.90;;;;;;6307555;22;20376;-67
2022/03/12 11:56:07;;;;;;;19.88;12.63;;;22.60;30.60;;;;;;6307605;22;20078;-67
2022/03/12 11:58:34;;;;;;;20.75;12.10;;;23.00;30.00;;;;;;6307490;22;20078;-67
2022/03/12 12:01:00;;;;;;;20.40;12.20;;;;;;;;;;6307469;22;20003;-68
2022/03/12 12:03:26;;;;;;;20.77;12.40;;;;;;;;;;6279964;22;20011;-67
2022/03/12 12:05:52;;;;;;;19.00;11.95;;;20.40;31.70;;;;;;6307068;22;20049;-67
2022/03/12 12:08:19;;;;;;;19.70;11.45;;;;;;;;;;6306611;22;20027;-72
2022/03/12 12:10:46;;;;;;;21.55;12.73;;;19.70;31.20;;;;;;6307479;22;20076;-67
2022/03/12 12:13:13;;;;;;;18.60;12.50;;;;;;;;;;6307399;22;20003;-67
2022/03/12 12:15:41;;;;;;;20.05;10.88;;;;;;;;;;6307340;22;20416;-67
2022/03/12 12:18:08;;;;;;;18.98;11.10;;;;;;;;;;6307372;22;20078;-67
2022/03/12 12:20:35;;;;;;;19.15;11.15;;;;;;;;;;6307151;22;20002;-67
2022/03/12 12:23:02;;;;;;;16.95;10.85;;;;;;;;;;6279853;22;20006;-68
2022/03/12 12:25:36;;;;;;;14.57;9.82;;;;;;;;;;6279978;22;19999;-69
2022/03/12 12:28:13;;;;;;;25.95;12.25;;;20.50;30.30;;;;;;6307339;22;20003;-68
2022/03/12 12:30:43;;;;;;;16.00;10.05;;;;;;;;;;6279786;22;20320;-67
2022/03/12 12:33:23;;;;;;;16.95;10.65;;;;;;;;;;6307306;22;20049;-68
2022/03/12 12:35:51;;;;;;;17.15;9.93;;;21.70;30.80;;;;;;6307234;22;20066;-68
2022/03/12 12:38:21;;;;;;;19.45;10.55;;;20.60;30.30;;;;;;6279678;22;20061;-68
2022/03/12 12:40:52;;;;;;;17.95;11.07;;;20.50;30.90;;;;;;6307094;22;20056;-69
2022/03/12 12:43:23;;;;;;;21.63;11.52;;;20.50;31.10;;;;;;6305737;22;20003;-68
2022/03/12 12:45:51;;;;;;;19.25;11.95;;;20.10;31.30;;;;;;6305462;22;20019;-69
2022/03/12 12:48:19;;;;;;;15.55;10.73;;;21.10;32.20;;;;;;6305774;22;20070;-68
2022/03/12 12:50:59;;;;;;;19.48;11.50;;;20.30;30.10;;;;;;6306203;22;20007;-69
2022/03/12 12:53:30;;;;;;;19.60;10.73;;;19.70;30.60;;;;;;6279354;22;19999;-67
2022/03/12 12:56:33;;;;;;;22.33;11.77;;;20.50;30.70;;;;;;6306798;22;19991;-65
2022/03/12 12:58:59;;;;;;;15.00;11.27;;;20.80;30.10;;;;;;6287114;22;19999;-65
2022/03/12 13:01:27;;;;;;;19.65;10.85;;;20.60;30.30;;;;;;6306741;22;20006;-66
2022/03/12 13:03:54;;;;;;;20.88;10.63;;;21.10;29.90;;;;;;6306741;22;20012;-66
2022/03/12 13:06:35;;;;;;;16.92;11.50;;;21.50;30.30;;;;;;6279477;22;20078;-67
2022/03/12 13:09:05;;;;;;;17.35;10.18;;;21.50;30.00;;;;;;6307083;22;20018;-65
2022/03/12 13:11:35;;;;;;;17.45;9.45;;;21.00;30.40;;;;;;6279693;22;20027;-67
2022/03/12 13:14:16;;;;;;;16.90;10.38;;;22.70;29.60;;;;;;6306922;22;19999;-67
2022/03/12 13:16:55;;;;;;;19.97;11.97;;;22.50;29.90;;;;;;6307110;22;20443;-68
2022/03/12 13:19:35;;;;;;;15.07;10.80;;;20.90;30.00;;;;;;6306754;22;20411;-68
2022/03/12 13:22:11;;;;;;;15.38;10.40;;;22.40;30.10;;;;;;6305822;22;20048;-66
2022/03/12 13:25:02;;;;;;;17.75;10.02;;;21.30;29.90;;;;;;6279282;22;20014;-66
2022/03/12 13:27:32;;;;;;;20.20;10.70;;;21.00;29.70;;;;;;6279676;22;19999;-65
2022/03/12 13:30:15;;;;;;;15.80;10.55;;;22.30;29.90;;;;;;6306794;22;19999;-66
2022/03/12 13:32:42;;;;;;;15.63;10.02;;;;;;;;;;6307092;22;19992;-66
2022/03/12 13:35:13;;;;;;;16.83;9.63;;;18.40;30.50;;;;;;6307064;22;20023;-67
2022/03/12 13:37:42;;;;;;;19.00;10.63;;;16.90;34.20;;;;;;6307141;22;19995;-67
2022/03/12 13:40:12;;;;;;;16.40;9.80;;;15.90;35.00;;;;;;6305488;22;19999;-67
2022/03/12 13:42:47;;;;;;;15.65;9.77;;;;;;;;;;6306842;22;19995;-68
2022/03/12 13:45:14;;;;;;;17.98;8.60;;;;;;;;;;6309159;22;20014;-66
2022/03/12 13:47:40;;;;;;;18.35;9.50;;;;;;;;;;6308820;22;20081;-67
2022/03/12 13:50:07;;;;;;;17.95;9.23;;;;;;;;;;6281461;22;20129;-66
2022/03/12 13:52:34;;;;;;;19.20;9.63;;;;;;;;;;6308884;22;20419;-65
2022/03/12 13:55:05;;;;;;;16.58;9.07;;;;;;;;;;6308764;22;19999;-67
2022/03/12 13:57:35;;;;;;;21.70;10.55;;;15.40;35.00;;;;;;6281249;22;19999;-63
2022/03/12 14:00:03;;;;;;;20.60;10.55;;;;;;;;;;6281344;22;20000;-66
2022/03/12 14:02:29;;;;;;;16.60;9.95;;;;;;;;;;6308429;22;20062;-65